sensor_id;sensor_type;location;lat;lon;timestamp;P1;durP1;ratioP1;P2;durP2;ratioP2
22861;SDS011;11598;50.652;6.172;2023-12-14T00:07:47;604.22;;;39.33;;
22861;SDS011;11598;50.652;6.172;2023-12-14T00:17:48;302.02;;;26.40;;
22861;SDS011;11598;50.652;6.172;2023-12-14T00:27:48;476.35;;;31.20;;
22861;SDS011;11598;50.652;6.172;2023-12-14T00:37:48;41.95;;;10.35;;
22861;SDS011;11598;50.652;6.172;2023-12-14T00:47:49;161.77;;;16.50;;
22861;SDS011;11598;50.652;6.172;2023-12-14T00:57:49;310.30;;;25.25;;
22861;SDS011;11598;50.652;6.172;2023-12-14T01:07:50;653.55;;;36.60;;
22861;SDS011;11598;50.652;6.172;2023-12-14T01:17:50;568.47;;;37.08;;
22861;SDS011;11598;50.652;6.172;2023-12-14T01:27:50;876.03;;;46.90;;
22861;SDS011;11598;50.652;6.172;2023-12-14T01:37:51;517.33;;;31.42;;
22861;SDS011;11598;50.652;6.172;2023-12-14T01:47:51;592.15;;;33.92;;
22861;SDS011;11598;50.652;6.172;2023-12-14T01:57:51;372.45;;;21.77;;
22861;SDS011;11598;50.652;6.172;2023-12-14T02:07:52;394.80;;;20.80;;
22861;SDS011;11598;50.652;6.172;2023-12-14T02:17:52;453.23;;;24.65;;
22861;SDS011;11598;50.652;6.172;2023-12-14T02:27:52;470.45;;;24.65;;
22861;SDS011;11598;50.652;6.172;2023-12-14T02:37:53;276.23;;;25.67;;
22861;SDS011;11598;50.652;6.172;2023-12-14T02:47:53;333.38;;;29.88;;
22861;SDS011;11598;50.652;6.172;2023-12-14T02:57:54;93.30;;;23.87;;
22861;SDS011;11598;50.652;6.172;2023-12-14T03:07:54;672.72;;;47.15;;
22861;SDS011;11598;50.652;6.172;2023-12-14T03:17:55;782.63;;;53.28;;
22861;SDS011;11598;50.652;6.172;2023-12-14T03:27:55;532.67;;;43.00;;
22861;SDS011;11598;50.652;6.172;2023-12-14T03:37:55;786.38;;;44.72;;
22861;SDS011;11598;50.652;6.172;2023-12-14T03:47:56;514.47;;;23.67;;
22861;SDS011;11598;50.652;6.172;2023-12-14T03:57:56;408.30;;;20.67;;
22861;SDS011;11598;50.652;6.172;2023-12-14T04:07:57;456.25;;;21.67;;
22861;SDS011;11598;50.652;6.172;2023-12-14T04:17:57;352.45;;;15.82;;
22861;SDS011;11598;50.652;6.172;2023-12-14T04:27:57;470.17;;;22.42;;
22861;SDS011;11598;50.652;6.172;2023-12-14T04:37:58;539.60;;;23.77;;
22861;SDS011;11598;50.652;6.172;2023-12-14T04:47:58;409.73;;;20.15;;
22861;SDS011;11598;50.652;6.172;2023-12-14T04:57:58;546.95;;;25.63;;
22861;SDS011;11598;50.652;6.172;2023-12-14T05:07:59;429.67;;;19.35;;
22861;SDS011;11598;50.652;6.172;2023-12-14T05:17:59;453.45;;;20.63;;
22861;SDS011;11598;50.652;6.172;2023-12-14T05:27:59;319.90;;;15.07;;
22861;SDS011;11598;50.652;6.172;2023-12-14T05:38:00;413.65;;;18.13;;
22861;SDS011;11598;50.652;6.172;2023-12-14T05:48:01;513.65;;;22.63;;
22861;SDS011;11598;50.652;6.172;2023-12-14T05:58:01;486.60;;;22.25;;
22861;SDS011;11598;50.652;6.172;2023-12-14T06:08:02;560.30;;;24.58;;
22861;SDS011;11598;50.652;6.172;2023-12-14T06:18:02;427.15;;;20.38;;
22861;SDS011;11598;50.652;6.172;2023-12-14T06:28:05;453.53;;;21.27;;
22861;SDS011;11598;50.652;6.172;2023-12-14T06:38:05;445.98;;;19.00;;
22861;SDS011;11598;50.652;6.172;2023-12-14T06:48:05;470.52;;;21.00;;
22861;SDS011;11598;50.652;6.172;2023-12-14T06:58:06;368.35;;;17.85;;
22861;SDS011;11598;50.652;6.172;2023-12-14T07:08:11;243.75;;;11.75;;
22861;SDS011;11598;50.652;6.172;2023-12-14T07:18:11;190.50;;;8.38;;
22861;SDS011;11598;50.652;6.172;2023-12-14T07:28:11;205.73;;;9.93;;
22861;SDS011;11598;50.652;6.172;2023-12-14T07:38:12;208.02;;;9.23;;
22861;SDS011;11598;50.652;6.172;2023-12-14T07:48:12;211.10;;;9.80;;
22861;SDS011;11598;50.652;6.172;2023-12-14T07:58:13;132.35;;;7.40;;
22861;SDS011;11598;50.652;6.172;2023-12-14T08:08:13;65.63;;;3.03;;
22861;SDS011;11598;50.652;6.172;2023-12-14T08:18:13;229.38;;;8.65;;
22861;SDS011;11598;50.652;6.172;2023-12-14T08:28:14;161.45;;;8.00;;
22861;SDS011;11598;50.652;6.172;2023-12-14T08:38:15;301.15;;;13.57;;
22861;SDS011;11598;50.652;6.172;2023-12-14T08:48:15;193.15;;;10.10;;
22861;SDS011;11598;50.652;6.172;2023-12-14T08:58:16;227.60;;;10.50;;
22861;SDS011;11598;50.652;6.172;2023-12-14T09:08:16;213.48;;;10.77;;
22861;SDS011;11598;50.652;6.172;2023-12-14T09:18:16;144.88;;;9.40;;
22861;SDS011;11598;50.652;6.172;2023-12-14T09:28:17;384.00;;;18.83;;
22861;SDS011;11598;50.652;6.172;2023-12-14T09:38:17;292.52;;;13.07;;
22861;SDS011;11598;50.652;6.172;2023-12-14T09:48:19;151.13;;;10.20;;
22861;SDS011;11598;50.652;6.172;2023-12-14T09:58:20;294.08;;;15.27;;
22861;SDS011;11598;50.652;6.172;2023-12-14T10:08:21;243.50;;;13.43;;
22861;SDS011;11598;50.652;6.172;2023-12-14T10:18:22;142.95;;;10.85;;
22861;SDS011;11598;50.652;6.172;2023-12-14T10:28:24;231.60;;;14.77;;
22861;SDS011;11598;50.652;6.172;2023-12-14T10:38:24;360.45;;;18.52;;
22861;SDS011;11598;50.652;6.172;2023-12-14T10:48:27;198.00;;;14.60;;
22861;SDS011;11598;50.652;6.172;2023-12-14T10:58:44;145.43;;;15.30;;
22861;SDS011;11598;50.652;6.172;2023-12-14T11:08:50;209.32;;;17.38;;
22861;SDS011;11598;50.652;6.172;2023-12-14T11:19:23;115.38;;;16.38;;
22861;SDS011;11598;50.652;6.172;2023-12-14T11:29:33;58.80;;;12.05;;
22861;SDS011;11598;50.652;6.172;2023-12-14T11:39:35;78.63;;;13.87;;
22861;SDS011;11598;50.652;6.172;2023-12-14T11:49:37;289.48;;;24.77;;
22861;SDS011;11598;50.652;6.172;2023-12-14T11:59:37;154.98;;;18.85;;
22861;SDS011;11598;50.652;6.172;2023-12-14T12:09:39;125.85;;;16.40;;
22861;SDS011;11598;50.652;6.172;2023-12-14T12:19:41;85.53;;;13.57;;
22861;SDS011;11598;50.652;6.172;2023-12-14T12:29:42;123.90;;;18.05;;
22861;SDS011;11598;50.652;6.172;2023-12-14T12:39:43;79.63;;;18.13;;
22861;SDS011;11598;50.652;6.172;2023-12-14T12:49:43;60.55;;;18.50;;
22861;SDS011;11598;50.652;6.172;2023-12-14T12:59:43;112.07;;;20.45;;
22861;SDS011;11598;50.652;6.172;2023-12-14T13:09:44;149.98;;;20.27;;
22861;SDS011;11598;50.652;6.172;2023-12-14T13:19:44;169.05;;;20.65;;
22861;SDS011;11598;50.652;6.172;2023-12-14T13:29:45;49.33;;;13.63;;
22861;SDS011;11598;50.652;6.172;2023-12-14T13:39:45;88.40;;;16.13;;
22861;SDS011;11598;50.652;6.172;2023-12-14T13:49:47;90.03;;;15.60;;
22861;SDS011;11598;50.652;6.172;2023-12-14T13:59:47;64.25;;;15.93;;
22861;SDS011;11598;50.652;6.172;2023-12-14T14:09:48;103.82;;;19.23;;
22861;SDS011;11598;50.652;6.172;2023-12-14T14:19:48;30.92;;;14.73;;
22861;SDS011;11598;50.652;6.172;2023-12-14T14:29:49;33.42;;;14.30;;
22861;SDS011;11598;50.652;6.172;2023-12-14T14:39:53;29.13;;;12.93;;
22861;SDS011;11598;50.652;6.172;2023-12-14T14:49:53;82.55;;;15.30;;
22861;SDS011;11598;50.652;6.172;2023-12-14T14:59:57;39.03;;;12.85;;
22861;SDS011;11598;50.652;6.172;2023-12-14T15:09:57;32.63;;;11.80;;
22861;SDS011;11598;50.652;6.172;2023-12-14T15:19:58;30.58;;;12.30;;
22861;SDS011;11598;50.652;6.172;2023-12-14T15:29:58;45.90;;;13.10;;
22861;SDS011;11598;50.652;6.172;2023-12-14T15:39:59;30.98;;;16.20;;
22861;SDS011;11598;50.652;6.172;2023-12-14T15:49:59;48.22;;;14.65;;
22861;SDS011;11598;50.652;6.172;2023-12-14T16:00:00;38.25;;;14.25;;
22861;SDS011;11598;50.652;6.172;2023-12-14T16:10:01;48.63;;;15.40;;
22861;SDS011;11598;50.652;6.172;2023-12-14T16:20:01;166.57;;;28.02;;
22861;SDS011;11598;50.652;6.172;2023-12-14T16:30:04;34.73;;;15.10;;
22861;SDS011;11598;50.652;6.172;2023-12-14T16:40:06;58.97;;;18.90;;
22861;SDS011;11598;50.652;6.172;2023-12-14T16:50:07;44.50;;;16.20;;
22861;SDS011;11598;50.652;6.172;2023-12-14T17:00:09;71.78;;;18.60;;
22861;SDS011;11598;50.652;6.172;2023-12-14T17:10:10;110.10;;;20.95;;
22861;SDS011;11598;50.652;6.172;2023-12-14T17:20:10;67.68;;;20.20;;
22861;SDS011;11598;50.652;6.172;2023-12-14T17:30:11;37.50;;;16.33;;
22861;SDS011;11598;50.652;6.172;2023-12-14T17:40:11;148.18;;;23.80;;
22861;SDS011;11598;50.652;6.172;2023-12-14T17:50:12;75.90;;;19.05;;
22861;SDS011;11598;50.652;6.172;2023-12-14T18:00:12;58.20;;;21.10;;
22861;SDS011;11598;50.652;6.172;2023-12-14T18:10:13;109.70;;;26.63;;
22861;SDS011;11598;50.652;6.172;2023-12-14T18:20:14;59.10;;;25.23;;
22861;SDS011;11598;50.652;6.172;2023-12-14T18:30:15;148.13;;;28.13;;
22861;SDS011;11598;50.652;6.172;2023-12-14T18:40:16;84.10;;;25.38;;
22861;SDS011;11598;50.652;6.172;2023-12-14T19:00:19;147.52;;;26.90;;
22861;SDS011;11598;50.652;6.172;2023-12-14T19:10:19;57.40;;;19.50;;
22861;SDS011;11598;50.652;6.172;2023-12-14T19:20:20;68.97;;;22.73;;
22861;SDS011;11598;50.652;6.172;2023-12-14T19:30:20;96.70;;;23.25;;
22861;SDS011;11598;50.652;6.172;2023-12-14T19:40:21;99.80;;;23.70;;
22861;SDS011;11598;50.652;6.172;2023-12-14T19:50:22;90.63;;;23.17;;
22861;SDS011;11598;50.652;6.172;2023-12-14T20:00:22;123.78;;;24.23;;
22861;SDS011;11598;50.652;6.172;2023-12-14T20:10:23;48.55;;;18.20;;
22861;SDS011;11598;50.652;6.172;2023-12-14T20:20:23;55.97;;;19.02;;
22861;SDS011;11598;50.652;6.172;2023-12-14T20:30:23;55.35;;;17.80;;
22861;SDS011;11598;50.652;6.172;2023-12-14T20:40:24;89.07;;;20.48;;
22861;SDS011;11598;50.652;6.172;2023-12-14T20:50:26;31.73;;;11.57;;
22861;SDS011;11598;50.652;6.172;2023-12-14T21:00:29;95.10;;;21.38;;
22861;SDS011;11598;50.652;6.172;2023-12-14T21:10:31;165.18;;;25.88;;
22861;SDS011;11598;50.652;6.172;2023-12-14T21:20:31;217.65;;;30.17;;
22861;SDS011;11598;50.652;6.172;2023-12-14T21:30:32;51.20;;;20.58;;
22861;SDS011;11598;50.652;6.172;2023-12-14T21:40:33;59.40;;;19.77;;
22861;SDS011;11598;50.652;6.172;2023-12-14T21:50:33;83.80;;;21.30;;
22861;SDS011;11598;50.652;6.172;2023-12-14T22:00:34;49.13;;;18.85;;
22861;SDS011;11598;50.652;6.172;2023-12-14T22:10:34;76.75;;;22.25;;
22861;SDS011;11598;50.652;6.172;2023-12-14T22:20:34;68.55;;;21.13;;
22861;SDS011;11598;50.652;6.172;2023-12-14T22:30:35;107.65;;;23.38;;
22861;SDS011;11598;50.652;6.172;2023-12-14T22:40:35;99.45;;;24.98;;
22861;SDS011;11598;50.652;6.172;2023-12-14T22:50:36;41.55;;;18.73;;
22861;SDS011;11598;50.652;6.172;2023-12-14T23:00:36;61.83;;;20.17;;
22861;SDS011;11598;50.652;6.172;2023-12-14T23:10:38;68.50;;;21.50;;
22861;SDS011;11598;50.652;6.172;2023-12-14T23:20:38;91.63;;;23.52;;
22861;SDS011;11598;50.652;6.172;2023-12-14T23:30:39;60.67;;;22.30;;
22861;SDS011;11598;50.652;6.172;2023-12-14T23:40:40;51.42;;;20.95;;
22861;SDS011;11598;50.652;6.172;2023-12-14T23:50:40;70.10;;;21.60;;
